createdAt,value
2022-12-19T00:00:36.620Z,9.10
2022-12-19T00:03:04.786Z,10.07
2022-12-19T00:05:36.834Z,10.43
2022-12-19T00:08:17.399Z,9.37
2022-12-19T00:10:56.394Z,8.93
2022-12-19T00:13:24.801Z,8.73
2022-12-19T00:15:53.036Z,8.47
2022-12-19T00:18:21.961Z,10.60
2022-12-19T00:20:56.729Z,9.20
2022-12-19T00:23:24.878Z,9.90
2022-12-19T00:25:54.423Z,9.10
2022-12-19T00:28:23.683Z,9.57
2022-12-19T00:30:51.785Z,9.03
2022-12-19T00:33:23.173Z,9.40
2022-12-19T00:35:51.131Z,9.13
2022-12-19T00:38:19.077Z,9.90
2022-12-19T00:40:47.036Z,9.73
2022-12-19T00:43:16.439Z,9.73
2022-12-19T00:45:44.407Z,10.23
2022-12-19T00:48:12.418Z,9.70
2022-12-19T00:50:43.562Z,9.00
2022-12-19T00:53:11.563Z,9.20
2022-12-19T00:55:39.878Z,9.30
2022-12-19T00:58:07.853Z,10.13
2022-12-19T01:00:37.245Z,9.30
2022-12-19T01:03:05.461Z,9.50
2022-12-19T01:05:33.712Z,9.63
2022-12-19T01:08:02.305Z,9.80
2022-12-19T01:10:30.463Z,9.17
2022-12-19T01:12:57.477Z,8.93
2022-12-19T01:15:25.879Z,9.73
2022-12-19T01:17:55.380Z,9.20
2022-12-19T01:20:25.653Z,9.20
2022-12-19T01:22:59.925Z,9.40
2022-12-19T01:25:28.812Z,9.87
2022-12-19T01:27:57.417Z,9.43
2022-12-19T01:30:25.557Z,9.67
2022-12-19T01:32:56.943Z,9.93
2022-12-19T01:35:25.677Z,8.57
2022-12-19T01:37:57.547Z,8.70
2022-12-19T01:40:36.841Z,9.80
2022-12-19T01:43:05.184Z,9.33
2022-12-19T01:45:35.433Z,8.90
2022-12-19T01:48:14.947Z,9.27
2022-12-19T01:51:00.426Z,9.60
2022-12-19T01:53:34.449Z,8.73
2022-12-19T01:56:09.645Z,8.37
2022-12-19T01:58:42.475Z,9.13
2022-12-19T02:01:10.494Z,8.50
2022-12-19T02:03:41.250Z,9.37
2022-12-19T02:06:10.366Z,8.90
2022-12-19T02:08:39.142Z,9.27
2022-12-19T02:11:07.236Z,8.53
2022-12-19T02:13:35.581Z,8.60
2022-12-19T02:16:11.908Z,8.43
2022-12-19T02:18:49.140Z,9.40
2022-12-19T02:21:36.725Z,9.00
2022-12-19T02:24:41.792Z,9.03
2022-12-19T02:27:40.703Z,8.10
2022-12-19T02:30:11.847Z,9.00
2022-12-19T02:32:51.454Z,9.10
2022-12-19T02:35:35.030Z,9.20
2022-12-19T02:38:13.282Z,10.10
2022-12-19T02:40:45.579Z,8.90
2022-12-19T02:43:16.629Z,8.83
2022-12-19T02:45:47.584Z,9.63
2022-12-19T02:48:19.482Z,9.43
2022-12-19T02:50:50.513Z,9.37
2022-12-19T02:53:23.646Z,8.60
2022-12-19T02:56:10.374Z,8.33
2022-12-19T02:58:50.585Z,8.20
2022-12-19T03:01:30.617Z,9.00
2022-12-19T03:04:09.631Z,8.73
2022-12-19T03:06:43.355Z,7.90
2022-12-19T03:09:18.075Z,9.70
2022-12-19T03:11:50.399Z,8.10
2022-12-19T03:14:21.700Z,8.20
2022-12-19T03:16:50.297Z,8.70
2022-12-19T03:19:19.868Z,9.00
2022-12-19T03:21:49.268Z,8.90
2022-12-19T03:24:18.910Z,8.30
2022-12-19T03:26:51.576Z,8.23
2022-12-19T03:29:24.716Z,8.10
2022-12-19T03:31:53.877Z,7.60
2022-12-19T03:34:27.014Z,8.33
2022-12-19T03:36:59.972Z,8.07
2022-12-19T03:39:30.224Z,7.97
2022-12-19T03:42:17.497Z,8.17
2022-12-19T03:44:45.965Z,8.73
2022-12-19T03:47:19.322Z,6.80
2022-12-19T03:49:49.673Z,7.50
2022-12-19T03:52:27.542Z,7.80
2022-12-19T03:55:03.333Z,7.63
2022-12-19T03:57:39.011Z,7.77
2022-12-19T04:00:09.989Z,8.10
2022-12-19T04:02:40.611Z,7.90
2022-12-19T04:05:12.524Z,7.60
2022-12-19T04:07:42.573Z,7.37
2022-12-19T04:10:13.666Z,7.10
2022-12-19T04:12:46.741Z,7.40
2022-12-19T04:15:15.563Z,6.90
2022-12-19T04:17:48.127Z,7.50
2022-12-19T04:20:20.290Z,7.50
2022-12-19T04:22:55.085Z,7.63
2022-12-19T04:25:29.636Z,7.50
2022-12-19T04:28:00.986Z,7.40
2022-12-19T04:30:29.102Z,7.23
2022-12-19T04:32:58.206Z,7.67
2022-12-19T04:35:27.561Z,6.80
2022-12-19T04:37:55.522Z,7.47
2022-12-19T04:40:23.486Z,7.57
2022-12-19T04:42:51.501Z,7.77
2022-12-19T04:45:19.615Z,6.53
2022-12-19T04:47:47.806Z,6.97
2022-12-19T04:50:15.818Z,7.43
2022-12-19T04:52:45.447Z,7.50
2022-12-19T04:55:13.440Z,6.97
2022-12-19T04:57:41.400Z,6.33
2022-12-19T05:00:11.798Z,7.07
2022-12-19T05:02:40.156Z,7.30
2022-12-19T05:05:08.777Z,7.20
2022-12-19T05:07:36.764Z,7.13
2022-12-19T05:10:07.732Z,7.33
2022-12-19T05:12:35.752Z,7.00
2022-12-19T05:15:03.793Z,7.10
2022-12-19T05:17:31.739Z,6.60
2022-12-19T05:19:59.688Z,6.77
2022-12-19T05:22:27.621Z,7.27
2022-12-19T05:24:55.598Z,7.00
2022-12-19T05:27:25.025Z,7.07
2022-12-19T05:29:53.031Z,7.03
2022-12-19T05:32:20.986Z,6.33
2022-12-19T05:34:49.000Z,6.30
2022-12-19T05:37:16.944Z,6.50
2022-12-19T05:39:44.937Z,7.00
2022-12-19T05:42:12.914Z,7.33
2022-12-19T05:44:42.355Z,7.00
2022-12-19T05:47:10.241Z,7.17
2022-12-19T05:49:38.176Z,7.00
2022-12-19T05:52:06.331Z,7.27
2022-12-19T05:54:34.567Z,5.93
2022-12-19T05:57:02.525Z,5.70
2022-12-19T05:59:30.548Z,6.93
2022-12-19T06:01:59.952Z,6.50
2022-12-19T06:04:27.927Z,6.80
2022-12-19T06:06:56.429Z,6.40
2022-12-19T06:09:24.791Z,5.77
2022-12-19T06:11:52.900Z,5.97
2022-12-19T06:14:21.244Z,6.67
2022-12-19T06:16:49.177Z,5.43
2022-12-19T06:19:26.455Z,6.37
2022-12-19T06:21:54.527Z,6.17
2022-12-19T06:24:25.282Z,6.30
2022-12-19T06:26:53.255Z,6.67
2022-12-19T06:29:21.348Z,5.77
2022-12-19T06:31:49.432Z,6.27
2022-12-19T06:34:46.963Z,5.83
2022-12-19T06:37:08.420Z,6.20
2022-12-19T06:39:36.864Z,6.63
2022-12-19T06:42:22.687Z,5.87
2022-12-19T06:44:51.042Z,5.63
2022-12-19T06:47:19.395Z,5.90
2022-12-19T06:49:50.190Z,6.40
2022-12-19T06:52:18.320Z,5.60
2022-12-19T06:54:46.327Z,6.87
2022-12-19T06:57:14.351Z,6.10
2022-12-19T06:59:42.347Z,5.50
2022-12-19T07:02:22.242Z,5.63
2022-12-19T07:04:56.322Z,5.83
2022-12-19T07:07:24.318Z,6.60
2022-12-19T07:09:52.323Z,5.87
2022-12-19T07:12:20.257Z,5.60
2022-12-19T07:14:53.153Z,5.80
2022-12-19T07:17:22.940Z,5.93
2022-12-19T07:19:52.793Z,6.70
2022-12-19T07:22:21.010Z,5.67
2022-12-19T07:24:49.153Z,5.30
2022-12-19T07:27:17.186Z,5.63
2022-12-19T07:29:45.135Z,6.00
2022-12-19T07:32:13.142Z,5.67
2022-12-19T07:34:41.071Z,6.07
2022-12-19T07:37:10.312Z,5.83
2022-12-19T07:39:38.293Z,5.80
2022-12-19T07:42:06.388Z,7.27
2022-12-19T07:44:34.390Z,6.60
2022-12-19T07:47:02.367Z,6.10
2022-12-19T07:49:30.516Z,5.93
2022-12-19T07:51:58.461Z,6.70
2022-12-19T07:54:27.749Z,5.50
2022-12-19T07:56:55.766Z,6.00
2022-12-19T07:59:29.588Z,5.23
2022-12-19T08:01:57.832Z,6.07
2022-12-19T08:04:27.361Z,7.20
2022-12-19T08:06:55.366Z,6.10
2022-12-19T08:09:23.290Z,6.20
2022-12-19T08:11:52.562Z,6.03
2022-12-19T08:14:20.888Z,6.90
2022-12-19T08:17:19.368Z,6.00
2022-12-19T08:19:36.929Z,6.23
2022-12-19T08:22:04.953Z,5.90
2022-12-19T08:24:33.066Z,5.80
2022-12-19T08:27:02.344Z,6.33
2022-12-19T08:29:30.472Z,5.37
2022-12-19T08:31:58.522Z,6.73
2022-12-19T08:34:27.008Z,6.30
2022-12-19T08:36:54.947Z,6.20
2022-12-19T08:39:22.899Z,5.87
2022-12-19T08:41:50.807Z,5.60
2022-12-19T08:44:20.152Z,6.10
2022-12-19T08:46:50.211Z,5.93
2022-12-19T08:49:19.624Z,5.90
2022-12-19T08:51:47.632Z,5.80
2022-12-19T08:54:15.599Z,5.63
2022-12-19T08:56:46.913Z,6.17
2022-12-19T08:59:18.509Z,6.67
2022-12-19T09:01:54.663Z,5.67
2022-12-19T09:05:58.508Z,5.83
2022-12-19T09:07:11.106Z,6.07
2022-12-19T09:09:39.053Z,5.40
2022-12-19T09:12:07.535Z,6.83
2022-12-19T09:14:51.707Z,5.90
2022-12-19T09:17:21.105Z,6.00
2022-12-19T09:19:49.195Z,5.57
2022-12-19T09:22:17.603Z,5.73
2022-12-19T09:24:45.520Z,6.10
2022-12-19T09:27:14.148Z,6.00
2022-12-19T09:29:43.006Z,5.70
2022-12-19T09:32:10.981Z,5.60
2022-12-19T09:34:40.418Z,5.43
2022-12-19T09:37:10.360Z,5.53
2022-12-19T09:39:45.181Z,5.77
2022-12-19T09:42:29.178Z,5.40
2022-12-19T09:45:09.313Z,5.27
2022-12-19T09:47:43.432Z,5.07
2022-12-19T09:50:26.985Z,5.17
2022-12-19T09:53:01.474Z,6.00
2022-12-19T09:55:33.525Z,5.43
2022-12-19T09:58:09.052Z,5.60
2022-12-19T10:00:41.440Z,6.03
2022-12-19T10:03:19.078Z,5.03
2022-12-19T10:06:31.296Z,5.53
2022-12-19T10:09:15.272Z,4.00
2022-12-19T10:12:38.647Z,5.13
2022-12-19T10:14:56.647Z,5.40
2022-12-19T10:17:34.545Z,4.73
2022-12-19T10:20:18.771Z,4.93
2022-12-19T10:22:57.376Z,5.97
2022-12-19T10:25:43.493Z,5.23
2022-12-19T10:28:25.534Z,5.37
2022-12-19T10:31:12.462Z,5.63
2022-12-19T10:33:49.697Z,4.80
2022-12-19T10:36:17.692Z,5.90
2022-12-19T10:38:54.115Z,5.20
2022-12-19T10:41:25.445Z,5.33
2022-12-19T10:44:03.204Z,5.10
2022-12-19T10:46:39.515Z,4.43
2022-12-19T10:49:16.744Z,5.10
2022-12-19T10:51:54.743Z,5.50
2022-12-19T10:54:33.220Z,4.97
2022-12-19T10:57:19.372Z,5.00
2022-12-19T10:59:56.628Z,4.67
2022-12-19T11:02:35.039Z,4.83
2022-12-19T11:05:04.762Z,5.03
2022-12-19T11:07:32.893Z,4.60
2022-12-19T11:10:38.530Z,4.93
2022-12-19T11:16:30.259Z,5.00
2022-12-19T11:19:21.803Z,5.00
2022-12-19T11:27:18.796Z,5.20
2022-12-19T11:29:19.505Z,5.20
2022-12-19T11:30:47.822Z,5.50
2022-12-19T11:30:59.589Z,4.53
2022-12-19T11:33:16.728Z,5.60
2022-12-19T11:35:51.053Z,5.27
2022-12-19T11:38:23.585Z,5.17
2022-12-19T11:40:55.399Z,5.30
2022-12-19T11:43:46.769Z,4.83
2022-12-19T11:46:31.038Z,5.00
2022-12-19T11:49:05.143Z,4.30
2022-12-19T11:51:41.465Z,4.67
2022-12-19T11:54:16.969Z,4.50
2022-12-19T11:56:45.227Z,4.80
2022-12-19T11:59:19.312Z,4.80
2022-12-19T12:02:09.217Z,4.37
2022-12-19T12:05:06.738Z,4.67
2022-12-19T12:08:41.788Z,4.90
2022-12-19T12:17:30.643Z,4.30
2022-12-19T12:23:11.392Z,4.27
2022-12-19T12:23:27.172Z,4.70
2022-12-19T12:31:22.735Z,4.53
2022-12-19T12:31:40.035Z,4.23
2022-12-19T12:31:47.161Z,5.07
2022-12-19T12:31:50.786Z,4.77
2022-12-19T12:35:56.637Z,4.87
2022-12-19T12:40:35.558Z,4.33
2022-12-19T12:43:17.416Z,4.90
2022-12-19T12:45:46.085Z,5.20
2022-12-19T12:48:25.610Z,5.10
2022-12-19T12:50:56.202Z,4.53
2022-12-19T12:53:28.786Z,5.37
2022-12-19T12:55:59.584Z,4.80
2022-12-19T12:59:03.471Z,4.40
2022-12-19T13:01:36.169Z,5.17
2022-12-19T13:04:08.481Z,4.80
2022-12-19T13:06:39.338Z,4.33
2022-12-19T13:09:25.564Z,4.90
2022-12-19T13:12:18.646Z,4.80
2022-12-19T13:15:32.631Z,4.90
2022-12-19T13:18:14.034Z,4.47
2022-12-19T13:20:46.796Z,4.30
2022-12-19T13:23:34.789Z,5.33
2022-12-19T13:26:02.895Z,5.60
2022-12-19T13:28:43.169Z,5.03
2022-12-19T13:31:21.384Z,6.00
2022-12-19T13:34:17.481Z,5.10
2022-12-19T13:39:52.339Z,5.00
2022-12-19T13:39:54.623Z,5.20
2022-12-19T13:42:55.523Z,5.17
2022-12-19T13:45:41.171Z,4.87
2022-12-19T13:48:17.589Z,4.67
2022-12-19T13:50:49.405Z,4.80
2022-12-19T13:53:21.025Z,5.40
2022-12-19T13:55:49.508Z,4.53
2022-12-19T13:58:29.473Z,4.50
2022-12-19T14:00:59.773Z,5.33
2022-12-19T14:03:36.087Z,4.90
2022-12-19T14:06:18.636Z,4.73
2022-12-19T14:09:46.258Z,4.63
2022-12-19T14:12:29.076Z,4.70
2022-12-19T14:15:12.316Z,4.73
2022-12-19T14:17:42.269Z,5.40
2022-12-19T14:22:10.003Z,4.57
2022-12-19T14:23:07.610Z,4.60
2022-12-19T14:28:17.034Z,3.90
2022-12-19T14:28:42.269Z,4.50
2022-12-19T14:31:15.294Z,5.20
2022-12-19T14:34:04.682Z,4.60
2022-12-19T14:36:37.521Z,5.53
2022-12-19T14:39:27.771Z,5.10
2022-12-19T14:42:19.186Z,5.40
2022-12-19T14:53:10.811Z,5.33
2022-12-19T14:54:03.376Z,3.70
2022-12-19T14:54:20.819Z,5.93
2022-12-19T14:54:29.757Z,5.07
2022-12-19T14:59:03.519Z,4.80
2022-12-19T15:01:33.807Z,5.73
2022-12-19T15:04:48.493Z,5.23
2022-12-19T15:07:07.281Z,5.20
2022-12-19T15:11:06.384Z,4.70
2022-12-19T15:14:47.748Z,5.90
2022-12-19T15:15:59.331Z,5.33
2022-12-19T15:18:29.380Z,5.33
2022-12-19T15:20:59.539Z,5.40
2022-12-19T15:23:29.581Z,5.50
2022-12-19T15:26:04.571Z,6.00
2022-12-19T15:28:38.912Z,5.90
2022-12-19T15:31:14.659Z,5.60
2022-12-19T15:34:06.737Z,5.73
2022-12-19T15:36:31.021Z,5.50
2022-12-19T15:38:59.704Z,6.17
2022-12-19T15:41:27.971Z,5.80
2022-12-19T15:44:04.804Z,5.75
2022-12-19T15:46:34.917Z,5.77
2022-12-19T15:49:03.015Z,5.90
2022-12-19T15:51:30.983Z,5.47
2022-12-19T15:54:15.644Z,6.17
2022-12-19T15:56:49.990Z,5.80
2022-12-19T15:59:34.735Z,6.30
2022-12-19T16:02:16.429Z,6.53
2022-12-19T16:04:44.917Z,6.70
2022-12-19T16:07:16.697Z,6.37
2022-12-19T16:09:44.734Z,6.57
2022-12-19T16:12:15.861Z,6.30
2022-12-19T16:14:50.172Z,6.00
2022-12-19T16:17:22.777Z,6.10
2022-12-19T16:19:51.555Z,6.13
2022-12-19T16:22:22.312Z,5.77
2022-12-19T16:24:51.231Z,6.70
2022-12-19T16:27:23.713Z,6.20
2022-12-19T16:29:52.272Z,7.07
2022-12-19T16:32:23.888Z,6.90
2022-12-19T16:34:52.255Z,5.70
2022-12-19T16:37:20.338Z,6.03
2022-12-19T16:39:48.372Z,5.87
2022-12-19T16:42:17.130Z,6.30
2022-12-19T16:44:46.992Z,6.60
2022-12-19T16:47:16.425Z,6.77
2022-12-19T16:49:46.368Z,5.97
2022-12-19T16:52:14.371Z,5.90
2022-12-19T16:54:42.295Z,6.00
2022-12-19T16:57:19.603Z,6.20
2022-12-19T16:59:47.696Z,6.20
2022-12-19T17:02:38.528Z,6.90
2022-12-19T17:05:14.928Z,6.80
2022-12-19T17:07:42.891Z,6.50
2022-12-19T17:10:11.555Z,6.07
2022-12-19T17:12:40.679Z,5.53
2022-12-19T17:15:18.927Z,7.17
2022-12-19T17:17:47.362Z,6.70
2022-12-19T17:20:18.554Z,6.47
2022-12-19T17:22:46.802Z,7.00
2022-12-19T17:25:21.111Z,7.13
2022-12-19T17:27:49.336Z,6.63
2022-12-19T17:30:17.866Z,6.53
2022-12-19T17:32:48.649Z,6.70
2022-12-19T17:35:27.243Z,6.83
2022-12-19T17:37:57.666Z,7.00
2022-12-19T17:40:27.766Z,6.30
2022-12-19T17:42:56.261Z,7.57
2022-12-19T17:45:24.790Z,6.70
2022-12-19T17:48:00.420Z,7.00
2022-12-19T17:50:34.943Z,7.57
2022-12-19T17:53:02.866Z,7.33
2022-12-19T17:55:31.433Z,7.10
2022-12-19T17:57:59.922Z,7.03
2022-12-19T18:00:30.962Z,6.70
2022-12-19T18:03:02.234Z,7.40
2022-12-19T18:05:36.350Z,6.80
2022-12-19T18:08:05.337Z,6.70
2022-12-19T18:10:33.457Z,6.63
2022-12-19T18:13:01.372Z,7.00
2022-12-19T18:15:29.334Z,6.57
2022-12-19T18:17:58.728Z,6.10
2022-12-19T18:20:31.948Z,7.40
2022-12-19T18:23:02.469Z,7.07
2022-12-19T18:25:35.093Z,7.33
2022-12-19T18:28:03.460Z,6.67
2022-12-19T18:30:31.472Z,7.27
2022-12-19T18:33:02.383Z,6.70
2022-12-19T18:35:34.665Z,6.80
2022-12-19T18:38:07.173Z,7.90
2022-12-19T18:40:35.316Z,7.23
2022-12-19T18:43:03.321Z,7.47
2022-12-19T18:45:36.114Z,7.97
2022-12-19T18:48:07.892Z,8.03
2022-12-19T18:50:36.558Z,7.50
2022-12-19T18:53:12.562Z,7.80
2022-12-19T18:55:44.159Z,7.60
2022-12-19T18:58:12.100Z,7.13
2022-12-19T19:00:41.362Z,7.13
2022-12-19T19:03:14.587Z,7.60
2022-12-19T19:05:43.967Z,8.10
2022-12-19T19:08:19.264Z,7.30
2022-12-19T19:10:49.094Z,7.97
2022-12-19T19:13:18.224Z,8.43
2022-12-19T19:15:49.749Z,7.30
2022-12-19T19:18:21.399Z,7.20
2022-12-19T19:20:54.337Z,7.73
2022-12-19T19:23:32.850Z,6.97
2022-12-19T19:26:00.933Z,7.40
2022-12-19T19:28:29.021Z,8.13
2022-12-19T19:30:57.775Z,7.40
2022-12-19T19:33:32.122Z,7.67
2022-12-19T19:36:09.322Z,7.70
2022-12-19T19:38:43.102Z,8.13
2022-12-19T19:41:11.091Z,8.00
2022-12-19T19:43:39.167Z,7.20
2022-12-19T19:46:08.031Z,7.00
2022-12-19T19:48:36.574Z,6.90
2022-12-19T19:51:04.646Z,7.80
2022-12-19T19:53:32.594Z,7.67
2022-12-19T19:56:02.253Z,7.67
2022-12-19T19:58:30.900Z,7.43
2022-12-19T20:00:59.247Z,7.73
2022-12-19T20:03:27.870Z,6.67
2022-12-19T20:06:00.633Z,7.47
2022-12-19T20:08:33.670Z,7.27
2022-12-19T20:11:08.413Z,7.60
2022-12-19T20:13:36.483Z,7.60
2022-12-19T20:16:06.270Z,6.93
2022-12-19T20:18:34.382Z,6.73
2022-12-19T20:21:04.569Z,7.37
2022-12-19T20:23:34.590Z,8.20
2022-12-19T20:26:02.764Z,7.30
2022-12-19T20:28:32.480Z,7.60
2022-12-19T20:31:00.741Z,7.10
2022-12-19T20:33:29.321Z,8.60
2022-12-19T20:35:58.012Z,7.07
2022-12-19T20:38:25.996Z,8.00
2022-12-19T20:40:55.916Z,7.03
2022-12-19T20:43:24.356Z,6.93
2022-12-19T20:45:53.772Z,8.00
2022-12-19T20:48:21.711Z,7.97
2022-12-19T20:50:49.700Z,7.90
2022-12-19T20:53:17.659Z,7.27
2022-12-19T20:55:57.606Z,7.70
2022-12-19T20:58:26.564Z,7.90
2022-12-19T21:00:57.585Z,7.60
2022-12-19T21:03:28.461Z,7.80
2022-12-19T21:05:58.534Z,7.23
2022-12-19T21:08:27.769Z,7.10
2022-12-19T21:10:56.017Z,6.87
2022-12-19T21:13:24.768Z,7.57
2022-12-19T21:15:54.198Z,7.47
2022-12-19T21:18:25.594Z,8.00
2022-12-19T21:20:54.590Z,7.60
2022-12-19T21:23:23.030Z,7.43
2022-12-19T21:25:51.248Z,7.33
2022-12-19T21:28:19.564Z,7.70
2022-12-19T21:30:47.513Z,7.53
2022-12-19T21:33:15.543Z,6.60
2022-12-19T21:35:44.825Z,7.00
2022-12-19T21:38:12.747Z,7.00
2022-12-19T21:40:40.784Z,7.03
2022-12-19T21:43:11.960Z,7.70
2022-12-19T21:45:40.591Z,7.30
2022-12-19T21:48:08.648Z,7.30
2022-12-19T21:50:37.848Z,8.37
2022-12-19T21:53:07.153Z,7.67
2022-12-19T21:55:35.783Z,8.10
2022-12-19T21:58:03.740Z,7.60
2022-12-19T22:00:31.684Z,7.13
2022-12-19T22:03:14.205Z,8.00
2022-12-19T22:05:42.984Z,7.47
2022-12-19T22:08:12.382Z,6.80
2022-12-19T22:10:40.798Z,8.00
2022-12-19T22:13:08.733Z,8.40
2022-12-19T22:15:36.858Z,7.40
2022-12-19T22:18:04.993Z,9.17
2022-12-19T22:20:32.959Z,8.10
2022-12-19T22:23:00.892Z,7.47
2022-12-19T22:25:30.189Z,8.43
2022-12-19T22:27:58.170Z,7.90
2022-12-19T22:30:26.121Z,8.60
2022-12-19T22:32:54.248Z,8.57
2022-12-19T22:35:22.196Z,8.20
2022-12-19T22:37:50.205Z,8.40
2022-12-19T22:40:18.431Z,7.73
2022-12-19T22:42:47.733Z,7.97
2022-12-19T22:45:15.829Z,8.13
2022-12-19T22:47:44.599Z,7.93
2022-12-19T22:50:13.003Z,8.40
2022-12-19T22:52:40.895Z,8.50
2022-12-19T22:55:09.636Z,7.70
2022-12-19T22:57:37.575Z,7.13
2022-12-19T23:00:10.622Z,8.20
2022-12-19T23:02:42.336Z,7.83
2022-12-19T23:05:10.584Z,7.70
2022-12-19T23:07:38.524Z,7.67
2022-12-19T23:10:07.886Z,7.23
2022-12-19T23:12:35.837Z,7.63
2022-12-19T23:15:03.982Z,8.53
2022-12-19T23:17:33.302Z,7.23
2022-12-19T23:20:01.265Z,8.10
2022-12-19T23:22:29.483Z,7.67
2022-12-19T23:24:57.563Z,7.23
2022-12-19T23:27:25.564Z,7.17
2022-12-19T23:29:53.531Z,7.13
2022-12-19T23:32:21.580Z,7.27
2022-12-19T23:34:51.230Z,6.77
2022-12-19T23:37:19.271Z,7.03
2022-12-19T23:39:47.220Z,6.90
2022-12-19T23:42:15.176Z,7.20
2022-12-19T23:44:47.415Z,7.23
2022-12-19T23:47:15.394Z,7.77
2022-12-19T23:49:43.354Z,6.53
2022-12-19T23:52:12.792Z,6.87
2022-12-19T23:54:40.761Z,7.27
2022-12-19T23:57:08.853Z,6.30
2022-12-19T23:59:36.996Z,6.00
